SWA3505 KMSY-KMCO
Flight info
| Callsign | SWA3505 |
|---|---|
| Flight time | 1h 21m |
| Altitude | 37000 |
| Route | REDFN Y280 CHRGE PRICY5 |
| Aircraft | B738/M-SDE2E3FGHIRWXY/LB1 |
Departure
| Time | 2026-04-23 08:23 |
|---|---|
| Airport | Louis Armstrong New Orleans International Airport (KMSY) |
Arrival
| Time | 2026-04-23 09:44 |
|---|---|
| Airport | Orlando International Airport (KMCO) |
| Time | Latitude | Longitude | Altitude | Speed | Heading |
|---|---|---|---|---|---|
| 2026-04-23 07:56 | 29.98613 | -90.25455 | 13 ft | 0 kts | 136° |
| 2026-04-23 08:12 | 29.98614 | -90.25456 | 23 ft | 1 kts | 136° |
| 2026-04-23 08:12 | 29.98627 | -90.25476 | 14 ft | 4 kts | 101° |
| 2026-04-23 08:12 | 29.98625 | -90.25504 | 14 ft | 4 kts | 56° |
| 2026-04-23 08:12 | 29.98612 | -90.25521 | 17 ft | 0 kts | 36° |
| 2026-04-23 08:15 | 29.98613 | -90.25520 | 17 ft | 0 kts | 36° |
| 2026-04-23 08:16 | 29.98619 | -90.25515 | 15 ft | 2 kts | 36° |
| 2026-04-23 08:16 | 29.98636 | -90.25500 | 15 ft | 4 kts | 37° |
| 2026-04-23 08:16 | 29.98663 | -90.25478 | 14 ft | 6 kts | 36° |
| 2026-04-23 08:16 | 29.98700 | -90.25446 | 15 ft | 8 kts | 36° |
| 2026-04-23 08:17 | 29.98752 | -90.25403 | 14 ft | 11 kts | 36° |
| 2026-04-23 08:17 | 29.98826 | -90.25356 | 12 ft | 14 kts | 1° |
| 2026-04-23 08:17 | 29.98878 | -90.25439 | 14 ft | 14 kts | 285° |
| 2026-04-23 08:17 | 29.98906 | -90.25556 | 16 ft | 15 kts | 286° |
| 2026-04-23 08:18 | 29.98935 | -90.25672 | 18 ft | 16 kts | 286° |
| 2026-04-23 08:18 | 29.98965 | -90.25796 | 16 ft | 18 kts | 285° |
| 2026-04-23 08:18 | 29.99000 | -90.25946 | 13 ft | 21 kts | 285° |
| 2026-04-23 08:18 | 29.99041 | -90.26113 | 13 ft | 22 kts | 286° |
| 2026-04-23 08:19 | 29.99085 | -90.26294 | 11 ft | 24 kts | 285° |
| 2026-04-23 08:19 | 29.99128 | -90.26475 | 12 ft | 23 kts | 285° |
| 2026-04-23 08:19 | 29.99171 | -90.26655 | 10 ft | 24 kts | 285° |
| 2026-04-23 08:19 | 29.99218 | -90.26841 | 12 ft | 23 kts | 285° |
| 2026-04-23 08:20 | 29.99259 | -90.27018 | 12 ft | 23 kts | 285° |
| 2026-04-23 08:20 | 29.99305 | -90.27207 | 10 ft | 26 kts | 285° |
| 2026-04-23 08:20 | 29.99355 | -90.27417 | 5 ft | 29 kts | 285° |
| 2026-04-23 08:20 | 29.99409 | -90.27640 | 6 ft | 28 kts | 285° |
| 2026-04-23 08:21 | 29.99460 | -90.27850 | 5 ft | 26 kts | 286° |
| 2026-04-23 08:21 | 29.99508 | -90.28045 | 10 ft | 24 kts | 285° |
| 2026-04-23 08:21 | 29.99544 | -90.28169 | 10 ft | 13 kts | 310° |
| 2026-04-23 08:21 | 29.99629 | -90.28170 | 9 ft | 13 kts | 19° |
| 2026-04-23 08:22 | 29.99664 | -90.28131 | 9 ft | 7 kts | 103° |
| 2026-04-23 08:22 | 29.99641 | -90.28070 | 8 ft | 11 kts | 107° |
| 2026-04-23 08:22 | 29.99563 | -90.27750 | 5 ft | 81 kts | 106° |
| 2026-04-23 08:22 | 29.99348 | -90.26874 | 16 ft | 147 kts | 108° |
| 2026-04-23 08:23 | 29.99032 | -90.25668 | 645 ft | 153 kts | 107° |
| 2026-04-23 08:23 | 29.98804 | -90.24496 | 1611 ft | 150 kts | 104° |
| 2026-04-23 08:23 | 29.98628 | -90.23240 | 2075 ft | 166 kts | 106° |
| 2026-04-23 08:23 | 29.98122 | -90.21997 | 2464 ft | 183 kts | 131° |
| 2026-04-23 08:24 | 29.97238 | -90.20830 | 2786 ft | 200 kts | 133° |
| 2026-04-23 08:24 | 29.96299 | -90.19586 | 3268 ft | 210 kts | 133° |
| 2026-04-23 08:24 | 29.95280 | -90.18224 | 3394 ft | 241 kts | 132° |
| 2026-04-23 08:24 | 29.94132 | -90.16705 | 3872 ft | 254 kts | 132° |
| 2026-04-23 08:25 | 29.92998 | -90.15221 | 5048 ft | 236 kts | 133° |
| 2026-04-23 08:25 | 29.91931 | -90.13788 | 5843 ft | 242 kts | 130° |
| 2026-04-23 08:25 | 29.90809 | -90.12202 | 6149 ft | 265 kts | 130° |
| 2026-04-23 08:25 | 29.89629 | -90.10521 | 6753 ft | 274 kts | 130° |
| 2026-04-23 08:26 | 29.88424 | -90.08806 | 7494 ft | 277 kts | 130° |
| 2026-04-23 08:26 | 29.87217 | -90.07091 | 8256 ft | 281 kts | 130° |
| 2026-04-23 08:26 | 29.85974 | -90.05331 | 9025 ft | 285 kts | 129° |
| 2026-04-23 08:26 | 29.84708 | -90.03540 | 9691 ft | 291 kts | 129° |
| 2026-04-23 08:27 | 29.83427 | -90.01735 | 9990 ft | 293 kts | 129° |
| 2026-04-23 08:27 | 29.82066 | -89.99817 | 10013 ft | 324 kts | 129° |
| 2026-04-23 08:27 | 29.80589 | -89.97741 | 10003 ft | 341 kts | 129° |
| 2026-04-23 08:27 | 29.79079 | -89.95620 | 9996 ft | 343 kts | 129° |
| 2026-04-23 08:28 | 29.77569 | -89.93500 | 9982 ft | 342 kts | 129° |
| 2026-04-23 08:28 | 29.76061 | -89.91384 | 9987 ft | 341 kts | 129° |
| 2026-04-23 08:28 | 29.74556 | -89.89276 | 9974 ft | 341 kts | 129° |
| 2026-04-23 08:28 | 29.73036 | -89.87146 | 10183 ft | 348 kts | 129° |
| 2026-04-23 08:29 | 29.71495 | -89.84989 | 10946 ft | 350 kts | 130° |
| 2026-04-23 08:29 | 29.69944 | -89.82820 | 11704 ft | 353 kts | 130° |
| 2026-04-23 08:29 | 29.68371 | -89.80621 | 12393 ft | 359 kts | 130° |
| 2026-04-23 08:29 | 29.66770 | -89.78384 | 13087 ft | 365 kts | 130° |
| 2026-04-23 08:30 | 29.65139 | -89.76106 | 13828 ft | 371 kts | 130° |
| 2026-04-23 08:30 | 29.63510 | -89.73833 | 14491 ft | 376 kts | 130° |
| 2026-04-23 08:30 | 29.61835 | -89.71497 | 15206 ft | 380 kts | 130° |
| 2026-04-23 08:30 | 29.60147 | -89.69142 | 15933 ft | 384 kts | 130° |
| 2026-04-23 08:31 | 29.58437 | -89.66760 | 16639 ft | 389 kts | 130° |
| 2026-04-23 08:31 | 29.56702 | -89.64344 | 17319 ft | 394 kts | 130° |
| 2026-04-23 08:31 | 29.54945 | -89.61897 | 18007 ft | 399 kts | 130° |
| 2026-04-23 08:31 | 29.53171 | -89.59430 | 18637 ft | 403 kts | 130° |
| 2026-04-23 08:32 | 29.51376 | -89.56935 | 19280 ft | 406 kts | 130° |
| 2026-04-23 08:32 | 29.49569 | -89.54424 | 19887 ft | 410 kts | 130° |
| 2026-04-23 08:32 | 29.47740 | -89.51886 | 20482 ft | 415 kts | 130° |
| 2026-04-23 08:32 | 29.45893 | -89.49323 | 21063 ft | 419 kts | 130° |
| 2026-04-23 08:33 | 29.44019 | -89.46725 | 21613 ft | 424 kts | 130° |
| 2026-04-23 08:33 | 29.42154 | -89.44141 | 22144 ft | 428 kts | 130° |
| 2026-04-23 08:33 | 29.40239 | -89.41488 | 22720 ft | 432 kts | 130° |
| 2026-04-23 08:33 | 29.38315 | -89.38827 | 23268 ft | 436 kts | 131° |
| 2026-04-23 08:34 | 29.36372 | -89.36139 | 23776 ft | 440 kts | 131° |
| 2026-04-23 08:34 | 29.34411 | -89.33429 | 24216 ft | 443 kts | 131° |
| 2026-04-23 08:34 | 29.32433 | -89.30697 | 24682 ft | 446 kts | 131° |
| 2026-04-23 08:34 | 29.30438 | -89.27943 | 25149 ft | 449 kts | 131° |
| 2026-04-23 08:35 | 29.28441 | -89.25189 | 25589 ft | 452 kts | 131° |
| 2026-04-23 08:35 | 29.26421 | -89.22404 | 26028 ft | 455 kts | 131° |
| 2026-04-23 08:35 | 29.24394 | -89.19611 | 26421 ft | 459 kts | 131° |
| 2026-04-23 08:35 | 29.22363 | -89.16817 | 26729 ft | 464 kts | 131° |
| 2026-04-23 08:36 | 29.20286 | -89.13961 | 27103 ft | 468 kts | 131° |
| 2026-04-23 08:36 | 29.18195 | -89.11086 | 27521 ft | 470 kts | 131° |
| 2026-04-23 08:36 | 29.16096 | -89.08203 | 27939 ft | 473 kts | 131° |
| 2026-04-23 08:36 | 29.13982 | -89.05301 | 28321 ft | 476 kts | 131° |
| 2026-04-23 08:37 | 29.11856 | -89.02384 | 28687 ft | 479 kts | 132° |
| 2026-04-23 08:37 | 29.09716 | -88.99450 | 29048 ft | 482 kts | 132° |
| 2026-04-23 08:37 | 29.07561 | -88.96499 | 29414 ft | 485 kts | 132° |
| 2026-04-23 08:37 | 29.05394 | -88.93533 | 29774 ft | 487 kts | 132° |
| 2026-04-23 08:38 | 29.03210 | -88.90544 | 30113 ft | 490 kts | 132° |
| 2026-04-23 08:38 | 29.01017 | -88.87547 | 30401 ft | 493 kts | 132° |
| 2026-04-23 08:38 | 28.98815 | -88.84538 | 30688 ft | 495 kts | 132° |
| 2026-04-23 08:38 | 28.97348 | -88.82534 | 30852 ft | 497 kts | 132° |
| 2026-04-23 08:39 | 28.95126 | -88.79502 | 31146 ft | 498 kts | 132° |
| 2026-04-23 08:39 | 28.92898 | -88.76464 | 31427 ft | 500 kts | 132° |
| 2026-04-23 08:39 | 28.89985 | -88.72367 | 31800 ft | 504 kts | 127° |
| 2026-04-23 08:39 | 28.88158 | -88.68939 | 32206 ft | 505 kts | 118° |
| 2026-04-23 08:40 | 28.87164 | -88.66489 | 32492 ft | 505 kts | 112° |
| 2026-04-23 08:40 | 28.86056 | -88.62692 | 32898 ft | 504 kts | 108° |
| 2026-04-23 08:40 | 28.84714 | -88.57610 | 33334 ft | 505 kts | 107° |
| 2026-04-23 08:40 | 28.84048 | -88.55064 | 33550 ft | 506 kts | 107° |
| 2026-04-23 08:41 | 28.83030 | -88.51225 | 33901 ft | 505 kts | 107° |
| 2026-04-23 08:41 | 28.81994 | -88.47389 | 34261 ft | 504 kts | 108° |
| 2026-04-23 08:41 | 28.80949 | -88.43586 | 34699 ft | 500 kts | 108° |
| 2026-04-23 08:41 | 28.79906 | -88.39824 | 35156 ft | 496 kts | 108° |
| 2026-04-23 08:42 | 28.78865 | -88.36088 | 35467 ft | 495 kts | 108° |
| 2026-04-23 08:42 | 28.77817 | -88.32333 | 35710 ft | 497 kts | 108° |
| 2026-04-23 08:42 | 28.76767 | -88.28571 | 35975 ft | 497 kts | 108° |
| 2026-04-23 08:42 | 28.75720 | -88.24821 | 36297 ft | 496 kts | 108° |
| 2026-04-23 08:43 | 28.74675 | -88.21078 | 36648 ft | 494 kts | 108° |
| 2026-04-23 08:43 | 28.73636 | -88.17359 | 37017 ft | 492 kts | 108° |
| 2026-04-23 08:43 | 28.71556 | -88.09928 | 37075 ft | 497 kts | 108° |
| 2026-04-23 08:44 | 28.69460 | -88.02474 | 37065 ft | 487 kts | 108° |
| 2026-04-23 08:44 | 28.67396 | -87.95167 | 37079 ft | 484 kts | 108° |
| 2026-04-23 08:45 | 28.65327 | -87.87854 | 37077 ft | 486 kts | 108° |
| 2026-04-23 08:45 | 28.63245 | -87.80511 | 37065 ft | 488 kts | 108° |
| 2026-04-23 08:46 | 28.61154 | -87.73147 | 37078 ft | 490 kts | 108° |
| 2026-04-23 08:46 | 28.59046 | -87.65743 | 37075 ft | 492 kts | 109° |
| 2026-04-23 08:47 | 28.56941 | -87.58365 | 37073 ft | 493 kts | 109° |
| 2026-04-23 08:47 | 28.54815 | -87.50934 | 37076 ft | 493 kts | 109° |
| 2026-04-23 08:48 | 28.52690 | -87.43519 | 37074 ft | 493 kts | 109° |
| 2026-04-23 08:48 | 28.50559 | -87.36103 | 37071 ft | 492 kts | 109° |
| 2026-04-23 08:49 | 28.48433 | -87.28720 | 37081 ft | 490 kts | 109° |
| 2026-04-23 08:49 | 28.46312 | -87.21372 | 37073 ft | 488 kts | 109° |
| 2026-04-23 08:50 | 28.44207 | -87.14095 | 37073 ft | 487 kts | 109° |
| 2026-04-23 08:50 | 28.42093 | -87.06805 | 37073 ft | 485 kts | 109° |
| 2026-04-23 08:51 | 28.39977 | -86.99523 | 37077 ft | 484 kts | 109° |
| 2026-04-23 08:51 | 28.37866 | -86.92272 | 37084 ft | 483 kts | 109° |
| 2026-04-23 08:52 | 28.35766 | -86.85077 | 37077 ft | 482 kts | 109° |
| 2026-04-23 08:52 | 28.33654 | -86.77851 | 37078 ft | 482 kts | 109° |
| 2026-04-23 08:53 | 28.31537 | -86.70629 | 37071 ft | 482 kts | 109° |
| 2026-04-23 08:53 | 28.29419 | -86.63391 | 37091 ft | 484 kts | 109° |
| 2026-04-23 08:54 | 28.27292 | -86.56114 | 37095 ft | 487 kts | 109° |
| 2026-04-23 08:54 | 28.25152 | -86.48806 | 37081 ft | 489 kts | 109° |
| 2026-04-23 08:55 | 28.23000 | -86.41478 | 37088 ft | 490 kts | 109° |
| 2026-04-23 08:55 | 28.20842 | -86.34143 | 37083 ft | 490 kts | 109° |
| 2026-04-23 08:56 | 28.18677 | -86.26805 | 37082 ft | 490 kts | 109° |
| 2026-04-23 08:56 | 28.16514 | -86.19488 | 37081 ft | 489 kts | 109° |
| 2026-04-23 08:57 | 28.14364 | -86.12230 | 37083 ft | 488 kts | 109° |
| 2026-04-23 08:57 | 28.12202 | -86.04948 | 37079 ft | 486 kts | 109° |
| 2026-04-23 08:58 | 28.10045 | -85.97700 | 37080 ft | 485 kts | 110° |
| 2026-04-23 08:58 | 28.07890 | -85.90475 | 37081 ft | 483 kts | 110° |
| 2026-04-23 08:59 | 28.05750 | -85.83312 | 37087 ft | 482 kts | 110° |
| 2026-04-23 08:59 | 28.03583 | -85.76076 | 37088 ft | 482 kts | 110° |
| 2026-04-23 09:00 | 28.01442 | -85.68944 | 37093 ft | 482 kts | 110° |
| 2026-04-23 09:00 | 27.99281 | -85.61759 | 37067 ft | 482 kts | 110° |
| 2026-04-23 09:01 | 27.97100 | -85.54523 | 37097 ft | 491 kts | 110° |
| 2026-04-23 09:01 | 27.94876 | -85.47162 | 37089 ft | 494 kts | 110° |
| 2026-04-23 09:02 | 27.92663 | -85.39846 | 37096 ft | 494 kts | 110° |
| 2026-04-23 09:02 | 27.90435 | -85.32497 | 37084 ft | 494 kts | 110° |
| 2026-04-23 09:03 | 27.88247 | -85.25148 | 37089 ft | 493 kts | 106° |
| 2026-04-23 09:03 | 27.86868 | -85.17571 | 37093 ft | 492 kts | 100° |
| 2026-04-23 09:04 | 27.85700 | -85.09954 | 37094 ft | 491 kts | 101° |
| 2026-04-23 09:04 | 27.84467 | -85.02392 | 37102 ft | 490 kts | 101° |
| 2026-04-23 09:05 | 27.83183 | -84.94838 | 37096 ft | 489 kts | 102° |
| 2026-04-23 09:05 | 27.81894 | -84.87278 | 37098 ft | 490 kts | 102° |
| 2026-04-23 09:06 | 27.81126 | -84.79698 | 37099 ft | 490 kts | 88° |
| 2026-04-23 09:06 | 27.81565 | -84.71992 | 37104 ft | 490 kts | 85° |
| 2026-04-23 09:07 | 27.82080 | -84.64299 | 37097 ft | 492 kts | 85° |
| 2026-04-23 09:07 | 27.82501 | -84.56559 | 37099 ft | 493 kts | 86° |
| 2026-04-23 09:08 | 27.82865 | -84.48859 | 37097 ft | 494 kts | 86° |
| 2026-04-23 09:08 | 27.83220 | -84.41076 | 36746 ft | 497 kts | 86° |
| 2026-04-23 09:09 | 27.83398 | -84.37178 | 36494 ft | 495 kts | 86° |
| 2026-04-23 09:09 | 27.83576 | -84.33292 | 36246 ft | 494 kts | 86° |
| 2026-04-23 09:09 | 27.83753 | -84.29407 | 36003 ft | 496 kts | 86° |
| 2026-04-23 09:09 | 27.83931 | -84.25516 | 35760 ft | 496 kts | 86° |
| 2026-04-23 09:10 | 27.84107 | -84.21622 | 35515 ft | 497 kts | 86° |
| 2026-04-23 09:10 | 27.84456 | -84.13815 | 35044 ft | 497 kts | 86° |
| 2026-04-23 09:10 | 27.84629 | -84.09907 | 34807 ft | 497 kts | 86° |
| 2026-04-23 09:11 | 27.84798 | -84.06060 | 34579 ft | 497 kts | 86° |
| 2026-04-23 09:11 | 27.84969 | -84.02153 | 34345 ft | 497 kts | 86° |
| 2026-04-23 09:11 | 27.85138 | -83.98264 | 34113 ft | 497 kts | 86° |
| 2026-04-23 09:11 | 27.85307 | -83.94366 | 33852 ft | 497 kts | 86° |
| 2026-04-23 09:12 | 27.85475 | -83.90459 | 33596 ft | 497 kts | 86° |
| 2026-04-23 09:12 | 27.85640 | -83.86560 | 33334 ft | 497 kts | 86° |
| 2026-04-23 09:12 | 27.85803 | -83.82652 | 33075 ft | 497 kts | 86° |
| 2026-04-23 09:12 | 27.85965 | -83.78749 | 32832 ft | 497 kts | 86° |
| 2026-04-23 09:13 | 27.86126 | -83.74833 | 32566 ft | 498 kts | 86° |
| 2026-04-23 09:13 | 27.86286 | -83.70924 | 32316 ft | 498 kts | 86° |
| 2026-04-23 09:13 | 27.86445 | -83.67022 | 31736 ft | 496 kts | 86° |
| 2026-04-23 09:13 | 27.86599 | -83.63194 | 31295 ft | 490 kts | 86° |
| 2026-04-23 09:14 | 27.86753 | -83.59355 | 30772 ft | 486 kts | 86° |
| 2026-04-23 09:14 | 27.86905 | -83.55545 | 30271 ft | 482 kts | 86° |
| 2026-04-23 09:14 | 27.87055 | -83.51773 | 29695 ft | 479 kts | 86° |
| 2026-04-23 09:14 | 27.87202 | -83.48037 | 29128 ft | 474 kts | 86° |
| 2026-04-23 09:15 | 27.87347 | -83.44325 | 28618 ft | 469 kts | 86° |
| 2026-04-23 09:15 | 27.87490 | -83.40655 | 28085 ft | 465 kts | 86° |
| 2026-04-23 09:15 | 27.87628 | -83.37063 | 27584 ft | 460 kts | 86° |
| 2026-04-23 09:15 | 27.87768 | -83.33422 | 27068 ft | 456 kts | 86° |
| 2026-04-23 09:16 | 27.87903 | -83.29892 | 26573 ft | 453 kts | 86° |
| 2026-04-23 09:16 | 27.88037 | -83.26350 | 26086 ft | 449 kts | 86° |
| 2026-04-23 09:16 | 27.88112 | -83.22854 | 25856 ft | 440 kts | 89° |
| 2026-04-23 09:16 | 27.88120 | -83.19404 | 25622 ft | 440 kts | 89° |
| 2026-04-23 09:17 | 27.88105 | -83.15918 | 25398 ft | 448 kts | 89° |
| 2026-04-23 09:17 | 27.88088 | -83.12374 | 25156 ft | 452 kts | 89° |
| 2026-04-23 09:17 | 27.88077 | -83.08827 | 24902 ft | 448 kts | 89° |
| 2026-04-23 09:17 | 27.88071 | -83.05316 | 24658 ft | 445 kts | 89° |
| 2026-04-23 09:18 | 27.88071 | -83.01830 | 24418 ft | 442 kts | 89° |
| 2026-04-23 09:18 | 27.88073 | -82.98351 | 24185 ft | 440 kts | 89° |
| 2026-04-23 09:18 | 27.88075 | -82.94898 | 23948 ft | 439 kts | 89° |
| 2026-04-23 09:18 | 27.88077 | -82.91456 | 23700 ft | 438 kts | 89° |
| 2026-04-23 09:19 | 27.88077 | -82.88021 | 23424 ft | 436 kts | 89° |
| 2026-04-23 09:19 | 27.88077 | -82.84598 | 23167 ft | 435 kts | 89° |
| 2026-04-23 09:19 | 27.88075 | -82.81231 | 22922 ft | 433 kts | 89° |
| 2026-04-23 09:19 | 27.88072 | -82.77837 | 22691 ft | 432 kts | 89° |
| 2026-04-23 09:20 | 27.88069 | -82.74448 | 22453 ft | 431 kts | 89° |
| 2026-04-23 09:20 | 27.88065 | -82.71058 | 22211 ft | 430 kts | 89° |
| 2026-04-23 09:20 | 27.88060 | -82.67691 | 21977 ft | 429 kts | 89° |
| 2026-04-23 09:20 | 27.88037 | -82.64320 | 21745 ft | 428 kts | 90° |
| 2026-04-23 09:21 | 27.87988 | -82.60952 | 21511 ft | 427 kts | 90° |
| 2026-04-23 09:21 | 27.87931 | -82.57592 | 21278 ft | 426 kts | 90° |
| 2026-04-23 09:21 | 27.87875 | -82.54249 | 21046 ft | 425 kts | 90° |
| 2026-04-23 09:21 | 27.87822 | -82.50917 | 20815 ft | 423 kts | 90° |
| 2026-04-23 09:22 | 27.87771 | -82.47592 | 20582 ft | 421 kts | 90° |
| 2026-04-23 09:22 | 27.87721 | -82.44329 | 20357 ft | 419 kts | 90° |
| 2026-04-23 09:22 | 27.87841 | -82.41056 | 20100 ft | 412 kts | 77° |
| 2026-04-23 09:22 | 27.88759 | -82.38049 | 19862 ft | 400 kts | 63° |
| 2026-04-23 09:23 | 27.89915 | -82.35209 | 19622 ft | 394 kts | 62° |
| 2026-04-23 09:23 | 27.91072 | -82.32424 | 19382 ft | 391 kts | 62° |
| 2026-04-23 09:23 | 27.92231 | -82.29628 | 19138 ft | 395 kts | 63° |
| 2026-04-23 09:23 | 27.93394 | -82.26792 | 18887 ft | 398 kts | 63° |
| 2026-04-23 09:24 | 27.94545 | -82.23952 | 18649 ft | 396 kts | 63° |
| 2026-04-23 09:24 | 27.95680 | -82.21130 | 18380 ft | 393 kts | 63° |
| 2026-04-23 09:24 | 27.96792 | -82.18354 | 18099 ft | 390 kts | 63° |
| 2026-04-23 09:24 | 27.97908 | -82.15563 | 17830 ft | 388 kts | 63° |
| 2026-04-23 09:25 | 27.99012 | -82.12800 | 17581 ft | 385 kts | 64° |
| 2026-04-23 09:25 | 28.00113 | -82.10041 | 17312 ft | 383 kts | 64° |
| 2026-04-23 09:25 | 28.01213 | -82.07284 | 16951 ft | 384 kts | 64° |
| 2026-04-23 09:25 | 28.02307 | -82.04540 | 16687 ft | 380 kts | 64° |
| 2026-04-23 09:26 | 28.03024 | -82.02741 | 16521 ft | 375 kts | 64° |
| 2026-04-23 09:26 | 28.04086 | -82.00073 | 16271 ft | 367 kts | 64° |
| 2026-04-23 09:26 | 28.05123 | -81.97469 | 16031 ft | 359 kts | 64° |
| 2026-04-23 09:26 | 28.06150 | -81.94908 | 15718 ft | 354 kts | 63° |
| 2026-04-23 09:27 | 28.07176 | -81.92391 | 15383 ft | 351 kts | 63° |
| 2026-04-23 09:27 | 28.08522 | -81.89092 | 14953 ft | 346 kts | 64° |
| 2026-04-23 09:27 | 28.09214 | -81.87431 | 14730 ft | 344 kts | 62° |
| 2026-04-23 09:27 | 28.10299 | -81.85073 | 14399 ft | 338 kts | 60° |
| 2026-04-23 09:28 | 28.11396 | -81.82758 | 14078 ft | 330 kts | 60° |
| 2026-04-23 09:28 | 28.12464 | -81.80491 | 13741 ft | 322 kts | 61° |
| 2026-04-23 09:28 | 28.13505 | -81.78268 | 13401 ft | 314 kts | 61° |
| 2026-04-23 09:28 | 28.14521 | -81.76095 | 13081 ft | 309 kts | 61° |
| 2026-04-23 09:29 | 28.15519 | -81.73958 | 12783 ft | 306 kts | 61° |
| 2026-04-23 09:29 | 28.16515 | -81.71824 | 12494 ft | 307 kts | 61° |
| 2026-04-23 09:29 | 28.17512 | -81.69686 | 12199 ft | 307 kts | 61° |
| 2026-04-23 09:29 | 28.18500 | -81.67566 | 11908 ft | 308 kts | 61° |
| 2026-04-23 09:30 | 28.19500 | -81.65417 | 11609 ft | 308 kts | 60° |
| 2026-04-23 09:30 | 28.20498 | -81.63272 | 11312 ft | 307 kts | 60° |
| 2026-04-23 09:30 | 28.21490 | -81.61137 | 11020 ft | 304 kts | 60° |
| 2026-04-23 09:30 | 28.22472 | -81.59026 | 10719 ft | 301 kts | 60° |
| 2026-04-23 09:31 | 28.23446 | -81.56928 | 10429 ft | 299 kts | 60° |
| 2026-04-23 09:31 | 28.24410 | -81.54851 | 10145 ft | 296 kts | 60° |
| 2026-04-23 09:31 | 28.25428 | -81.52840 | 9938 ft | 289 kts | 53° |
| 2026-04-23 09:31 | 28.26601 | -81.51033 | 9680 ft | 285 kts | 51° |
| 2026-04-23 09:32 | 28.27783 | -81.49274 | 9440 ft | 276 kts | 51° |
| 2026-04-23 09:32 | 28.28920 | -81.47553 | 9200 ft | 270 kts | 52° |
| 2026-04-23 09:32 | 28.30018 | -81.45867 | 9037 ft | 259 kts | 52° |
| 2026-04-23 09:32 | 28.31033 | -81.44298 | 8954 ft | 243 kts | 52° |
| 2026-04-23 09:33 | 28.32151 | -81.42962 | 8808 ft | 227 kts | 28° |
| 2026-04-23 09:33 | 28.33591 | -81.42423 | 8745 ft | 211 kts | 8° |
| 2026-04-23 09:33 | 28.35033 | -81.42357 | 8419 ft | 210 kts | 359° |
| 2026-04-23 09:33 | 28.36479 | -81.42372 | 8165 ft | 205 kts | 360° |
| 2026-04-23 09:34 | 28.37887 | -81.42387 | 7965 ft | 199 kts | 360° |
| 2026-04-23 09:34 | 28.39255 | -81.42398 | 7759 ft | 195 kts | 0° |
| 2026-04-23 09:34 | 28.40610 | -81.42404 | 7534 ft | 195 kts | 1° |
| 2026-04-23 09:34 | 28.41949 | -81.42408 | 7368 ft | 195 kts | 1° |
| 2026-04-23 09:35 | 28.43314 | -81.42411 | 7189 ft | 198 kts | 1° |
| 2026-04-23 09:35 | 28.44698 | -81.42413 | 7000 ft | 199 kts | 1° |
| 2026-04-23 09:35 | 28.46077 | -81.42414 | 6806 ft | 197 kts | 1° |
| 2026-04-23 09:35 | 28.47448 | -81.42415 | 6624 ft | 195 kts | 2° |
| 2026-04-23 09:36 | 28.48794 | -81.42415 | 6453 ft | 192 kts | 2° |
| 2026-04-23 09:36 | 28.50116 | -81.42416 | 6262 ft | 188 kts | 2° |
| 2026-04-23 09:36 | 28.51412 | -81.42416 | 6061 ft | 184 kts | 2° |
| 2026-04-23 09:36 | 28.52677 | -81.42309 | 5747 ft | 182 kts | 22° |
| 2026-04-23 09:37 | 28.53657 | -81.41483 | 5538 ft | 175 kts | 44° |
| 2026-04-23 09:37 | 28.54565 | -81.40533 | 5236 ft | 178 kts | 44° |
| 2026-04-23 09:37 | 28.55470 | -81.39587 | 4942 ft | 179 kts | 44° |
| 2026-04-23 09:37 | 28.56391 | -81.38621 | 4625 ft | 180 kts | 44° |
| 2026-04-23 09:38 | 28.57317 | -81.37649 | 4319 ft | 181 kts | 45° |
| 2026-04-23 09:38 | 28.58245 | -81.36673 | 4014 ft | 182 kts | 45° |
| 2026-04-23 09:38 | 28.59178 | -81.35692 | 3708 ft | 183 kts | 45° |
| 2026-04-23 09:38 | 28.60118 | -81.34701 | 3401 ft | 184 kts | 47° |
| 2026-04-23 09:39 | 28.60760 | -81.33501 | 3055 ft | 174 kts | 84° |
| 2026-04-23 09:39 | 28.60579 | -81.32258 | 2905 ft | 153 kts | 117° |
| 2026-04-23 09:39 | 28.59884 | -81.31374 | 2836 ft | 153 kts | 143° |
| 2026-04-23 09:39 | 28.59004 | -81.30661 | 2767 ft | 157 kts | 143° |
| 2026-04-23 09:40 | 28.58114 | -81.29943 | 2682 ft | 157 kts | 143° |
| 2026-04-23 09:40 | 28.57226 | -81.29231 | 2582 ft | 154 kts | 143° |
| 2026-04-23 09:40 | 28.56360 | -81.28546 | 2444 ft | 150 kts | 149° |
| 2026-04-23 09:40 | 28.55366 | -81.28378 | 2316 ft | 145 kts | 178° |
| 2026-04-23 09:41 | 28.54351 | -81.28376 | 2078 ft | 143 kts | 175° |
| 2026-04-23 09:41 | 28.53369 | -81.28360 | 1887 ft | 140 kts | 175° |
| 2026-04-23 09:41 | 28.52382 | -81.28342 | 1655 ft | 143 kts | 176° |
| 2026-04-23 09:41 | 28.51389 | -81.28327 | 1478 ft | 141 kts | 176° |
| 2026-04-23 09:42 | 28.50425 | -81.28323 | 1284 ft | 141 kts | 176° |
| 2026-04-23 09:42 | 28.49437 | -81.28306 | 1101 ft | 142 kts | 176° |
| 2026-04-23 09:42 | 28.48450 | -81.28285 | 913 ft | 144 kts | 177° |
| 2026-04-23 09:42 | 28.47441 | -81.28259 | 735 ft | 145 kts | 179° |
| 2026-04-23 09:43 | 28.46431 | -81.28261 | 556 ft | 146 kts | 180° |
| 2026-04-23 09:43 | 28.45405 | -81.28266 | 354 ft | 149 kts | 179° |
| 2026-04-23 09:43 | 28.44371 | -81.28252 | 146 ft | 148 kts | 180° |
| 2026-04-23 09:43 | 28.43398 | -81.28247 | 94 ft | 121 kts | 179° |
| 2026-04-23 09:44 | 28.42721 | -81.28242 | 98 ft | 54 kts | 179° |
| 2026-04-23 09:44 | 28.42546 | -81.28302 | 100 ft | 23 kts | 230° |
| 2026-04-23 09:44 | 28.42490 | -81.28459 | 94 ft | 20 kts | 251° |
| 2026-04-23 09:44 | 28.42444 | -81.28608 | 99 ft | 20 kts | 250° |
| 2026-04-23 09:45 | 28.42404 | -81.28736 | 100 ft | 10 kts | 250° |
| 2026-04-23 09:45 | 28.42381 | -81.28807 | 102 ft | 9 kts | 251° |
| 2026-04-23 09:45 | 28.42360 | -81.28876 | 104 ft | 9 kts | 251° |
| 2026-04-23 09:45 | 28.42337 | -81.28953 | 102 ft | 11 kts | 251° |
| 2026-04-23 09:46 | 28.42308 | -81.29048 | 94 ft | 17 kts | 251° |
| 2026-04-23 09:46 | 28.42286 | -81.29179 | 94 ft | 16 kts | 266° |
| 2026-04-23 09:46 | 28.42347 | -81.29259 | 93 ft | 15 kts | 328° |
| 2026-04-23 09:46 | 28.42367 | -81.29373 | 91 ft | 16 kts | 270° |
| 2026-04-23 09:47 | 28.42366 | -81.29494 | 93 ft | 15 kts | 269° |
| 2026-04-23 09:47 | 28.42365 | -81.29610 | 94 ft | 14 kts | 269° |
| 2026-04-23 09:47 | 28.42396 | -81.29699 | 95 ft | 13 kts | 340° |
| 2026-04-23 09:47 | 28.42486 | -81.29701 | 96 ft | 13 kts | 360° |
| 2026-04-23 09:48 | 28.42571 | -81.29708 | 96 ft | 12 kts | 336° |
| 2026-04-23 09:48 | 28.42613 | -81.29788 | 94 ft | 12 kts | 317° |
| 2026-04-23 09:48 | 28.42694 | -81.29798 | 94 ft | 12 kts | 1° |
| 2026-04-23 09:48 | 28.42780 | -81.29798 | 95 ft | 14 kts | 360° |
| 2026-04-23 09:49 | 28.42890 | -81.29800 | 95 ft | 18 kts | 359° |
| 2026-04-23 09:49 | 28.43027 | -81.29802 | 95 ft | 22 kts | 359° |
| 2026-04-23 09:49 | 28.43191 | -81.29802 | 95 ft | 25 kts | 0° |
| 2026-04-23 09:49 | 28.43357 | -81.29803 | 95 ft | 17 kts | 359° |
| 2026-04-23 09:50 | 28.43425 | -81.29826 | 94 ft | 9 kts | 308° |
| 2026-04-23 09:50 | 28.43462 | -81.29880 | 95 ft | 9 kts | 341° |
| 2026-04-23 09:50 | 28.43514 | -81.29897 | 94 ft | 2 kts | 284° |
| 2026-04-23 09:50 | 28.43504 | -81.29921 | 95 ft | 4 kts | 245° |
| 2026-04-23 09:51 | 28.43490 | -81.29946 | 95 ft | 4 kts | 236° |
| 2026-04-23 09:51 | 28.43475 | -81.29988 | 94 ft | 7 kts | 263° |
| 2026-04-23 09:51 | 28.43473 | -81.30018 | 94 ft | 1 kts | 268° |
| 2026-04-23 09:51 | 28.43473 | -81.30020 | 94 ft | 0 kts | 269° |